Time;durP1;ratioP1;P1;durP2;ratioP2;P2;SDS_P1;SDS_P2;PMS_P1;PMS_P2;Temp;Humidity;BMP_temperature;BMP_pressure;BME280_temperature;BME280_humidity;BME280_pressure;Samples;Min_cycle;Max_cycle;Signal;HPM_P1;HPM_P2
2024/01/15 00:00:54;;;;;;;14.00;7.80;;;13.70;40.40;;;;;;5156240;27;45198;-52
2024/01/15 00:03:20;;;;;;;15.43;8.27;;;13.70;40.50;;;;;;5152721;27;47300;-52
2024/01/15 00:05:47;;;;;;;15.05;7.90;;;13.70;40.50;;;;;;5154719;27;45193;-51
2024/01/15 00:08:14;;;;;;;13.60;8.20;;;13.70;40.50;;;;;;5151959;27;45220;-51
2024/01/15 00:10:42;;;;;;;16.77;7.90;;;13.70;40.50;;;;;;5153826;27;45159;-51
2024/01/15 00:13:09;;;;;;;16.25;7.72;;;13.70;40.50;;;;;;5154986;27;46514;-51
2024/01/15 00:15:36;;;;;;;17.05;8.93;;;13.70;40.50;;;;;;5150955;27;45320;-51
2024/01/15 00:18:05;;;;;;;13.75;8.30;;;13.70;40.50;;;;;;5155062;27;45295;-51
2024/01/15 00:20:32;;;;;;;14.63;7.78;;;13.70;40.60;;;;;;5153493;27;45303;-52
2024/01/15 00:22:58;;;;;;;12.32;7.00;;;13.70;40.50;;;;;;5152915;27;47090;-52
2024/01/15 00:25:25;;;;;;;14.13;7.82;;;13.70;40.70;;;;;;5154015;27;45111;-52
2024/01/15 00:27:51;;;;;;;15.13;7.18;;;13.80;40.70;;;;;;5152208;27;45629;-52
2024/01/15 00:30:18;;;;;;;12.98;7.32;;;13.70;40.90;;;;;;5153184;27;45126;-51
2024/01/15 00:32:45;;;;;;;14.00;7.80;;;13.80;41.00;;;;;;5155742;27;47013;-52
2024/01/15 00:35:13;;;;;;;14.55;8.15;;;13.80;41.10;;;;;;5152344;27;45492;-52
2024/01/15 00:37:40;;;;;;;15.18;7.78;;;13.80;41.00;;;;;;5148655;27;45132;-51
2024/01/15 00:40:08;;;;;;;16.38;8.18;;;13.80;41.10;;;;;;5151443;27;45157;-52
2024/01/15 00:42:35;;;;;;;15.52;7.70;;;13.80;41.10;;;;;;5153188;27;47317;-51
2024/01/15 00:45:02;;;;;;;15.27;8.07;;;13.80;41.00;;;;;;5155790;27;45238;-51
2024/01/15 00:47:29;;;;;;;15.43;7.93;;;13.80;41.00;;;;;;5152409;27;45203;-51
2024/01/15 00:49:56;;;;;;;12.88;7.80;;;13.80;41.00;;;;;;5155054;27;45181;-51
2024/01/15 00:52:24;;;;;;;11.90;6.72;;;13.80;41.10;;;;;;5152415;27;45150;-51
2024/01/15 00:54:50;;;;;;;17.33;8.25;;;13.70;41.10;;;;;;5150595;27;45165;-51
2024/01/15 00:57:18;;;;;;;14.80;8.20;;;13.70;41.10;;;;;;5152916;27;45629;-51
2024/01/15 00:59:45;;;;;;;15.30;8.02;;;13.70;41.20;;;;;;5150491;27;45190;-51
2024/01/15 01:02:12;;;;;;;16.27;7.72;;;13.60;41.00;;;;;;5153640;27;45348;-52
2024/01/15 01:04:39;;;;;;;13.70;7.60;;;13.70;41.20;;;;;;5150136;27;45196;-52
2024/01/15 01:07:05;;;;;;;13.45;7.43;;;13.70;41.10;;;;;;5147159;27;44805;-52
2024/01/15 01:09:34;;;;;;;15.40;8.35;;;13.70;41.10;;;;;;5148933;27;45255;-52
2024/01/15 01:12:00;;;;;;;15.80;7.97;;;13.70;41.00;;;;;;5153857;27;45249;-52
2024/01/15 01:14:27;;;;;;;14.73;8.05;;;13.70;41.10;;;;;;5151291;27;45198;-52
2024/01/15 01:16:54;;;;;;;15.45;7.72;;;13.70;41.20;;;;;;5149009;27;45201;-52
2024/01/15 01:19:20;;;;;;;13.43;7.38;;;13.70;41.60;;;;;;5148941;27;45245;-52
2024/01/15 01:21:47;;;;;;;14.93;7.82;;;13.70;41.10;;;;;;5152147;27;45437;-52
2024/01/15 01:24:14;;;;;;;15.45;7.45;;;13.70;41.10;;;;;;5151130;27;45366;-52
2024/01/15 01:26:42;;;;;;;12.35;7.10;;;13.70;41.10;;;;;;5149857;27;45153;-51
2024/01/15 01:29:09;;;;;;;14.30;7.35;;;13.70;41.10;;;;;;5152054;27;45310;-52
2024/01/15 01:31:36;;;;;;;13.45;6.97;;;13.80;41.10;;;;;;5152233;27;47016;-51
2024/01/15 01:34:03;;;;;;;13.27;7.03;;;13.80;41.10;;;;;;5154529;27;45228;-52
2024/01/15 01:36:32;;;;;;;13.27;7.15;;;13.80;41.10;;;;;;5151135;27;45205;-52
2024/01/15 01:38:59;;;;;;;13.07;7.13;;;13.80;41.00;;;;;;5152821;27;45341;-53
2024/01/15 01:41:25;;;;;;;12.57;7.45;;;13.80;41.00;;;;;;5152747;27;47011;-52
2024/01/15 01:43:54;;;;;;;12.65;7.05;;;13.80;40.90;;;;;;5150457;27;45299;-52
2024/01/15 01:46:20;;;;;;;13.68;7.32;;;13.80;41.20;;;;;;5151010;27;45143;-51
2024/01/15 01:48:47;;;;;;;13.20;6.63;;;13.80;41.10;;;;;;5151629;27;45164;-51
2024/01/15 01:51:15;;;;;;;11.43;6.75;;;13.70;41.10;;;;;;5154036;27;46062;-52
2024/01/15 01:53:42;;;;;;;13.10;6.60;;;13.70;41.00;;;;;;5150950;27;45137;-52
2024/01/15 01:56:10;;;;;;;12.73;6.82;;;13.70;41.10;;;;;;5149201;27;45102;-52
2024/01/15 01:58:37;;;;;;;11.88;6.53;;;13.70;41.10;;;;;;5150444;27;45352;-52
2024/01/15 02:01:05;;;;;;;12.23;6.45;;;13.70;41.10;;;;;;5153953;27;46346;-52
2024/01/15 02:03:32;;;;;;;14.80;6.47;;;13.70;41.10;;;;;;5151058;27;45322;-52
2024/01/15 02:06:01;;;;;;;11.15;6.47;;;13.70;41.10;;;;;;5152286;27;45200;-52
2024/01/15 02:08:28;;;;;;;12.13;6.68;;;13.70;41.20;;;;;;5152048;27;45209;-52
2024/01/15 02:10:54;;;;;;;12.88;6.65;;;13.70;41.20;;;;;;5149743;27;47919;-51
2024/01/15 02:13:21;;;;;;;12.68;6.88;;;13.70;41.20;;;;;;5153003;27;45131;-51
2024/01/15 02:15:48;;;;;;;12.25;6.57;;;13.70;42.30;;;;;;5148585;27;45113;-52
2024/01/15 02:18:16;;;;;;;12.48;6.75;;;13.70;41.30;;;;;;5149416;27;45246;-52
2024/01/15 02:20:44;;;;;;;12.88;6.80;;;13.70;41.20;;;;;;5152911;27;47466;-51
2024/01/15 02:23:13;;;;;;;13.13;5.97;;;13.70;41.20;;;;;;5151137;27;44762;-51
2024/01/15 02:25:41;;;;;;;11.32;6.30;;;13.80;41.20;;;;;;5149556;27;45121;-51
2024/01/15 02:28:11;;;;;;;11.65;5.95;;;13.80;41.20;;;;;;5154923;27;45142;-52
2024/01/15 02:30:39;;;;;;;11.57;6.30;;;13.80;41.10;;;;;;5151151;27;45224;-52
2024/01/15 02:33:06;;;;;;;10.73;6.15;;;13.80;41.30;;;;;;5151791;27;45155;-52
2024/01/15 02:35:32;;;;;;;10.63;6.43;;;13.80;41.70;;;;;;5152266;27;45165;-52
2024/01/15 02:37:59;;;;;;;10.57;5.85;;;13.80;41.60;;;;;;5150821;27;45215;-52
2024/01/15 02:40:27;;;;;;;11.07;5.70;;;13.80;41.50;;;;;;5150753;27;46517;-52
2024/01/15 02:42:54;;;;;;;11.27;6.25;;;13.80;41.80;;;;;;5153991;27;45383;-52
2024/01/15 02:45:21;;;;;;;11.32;6.15;;;13.80;41.90;;;;;;5152328;27;45267;-52
2024/01/15 02:47:48;;;;;;;10.80;5.88;;;13.70;41.70;;;;;;5152608;27;45329;-52
2024/01/15 02:50:15;;;;;;;9.95;5.47;;;13.70;41.80;;;;;;5156317;27;46529;-51
2024/01/15 02:52:43;;;;;;;10.32;5.70;;;13.70;41.80;;;;;;5149390;27;45314;-52
2024/01/15 02:55:10;;;;;;;8.63;5.13;;;13.70;41.80;;;;;;5154867;27;44681;-52
2024/01/15 02:57:38;;;;;;;11.43;5.95;;;13.70;41.70;;;;;;5152641;27;45197;-52
2024/01/15 03:00:07;;;;;;;10.18;5.35;;;13.70;41.70;;;;;;5147985;27;45112;-52
2024/01/15 03:02:33;;;;;;;9.02;5.05;;;13.70;41.60;;;;;;5153166;27;45780;-51
2024/01/15 03:05:00;;;;;;;10.25;5.50;;;13.60;41.60;;;;;;5150598;27;45318;-52
2024/01/15 03:07:28;;;;;;;8.75;5.18;;;13.70;41.60;;;;;;5150554;27;45322;-52
2024/01/15 03:09:55;;;;;;;10.32;4.78;;;13.70;41.50;;;;;;5149241;27;47940;-52
2024/01/15 03:12:22;;;;;;;9.35;5.40;;;13.70;41.50;;;;;;5154834;27;45129;-52
2024/01/15 03:14:51;;;;;;;9.20;5.43;;;13.70;41.60;;;;;;5153914;27;45160;-52
2024/01/15 03:17:17;;;;;;;8.27;4.88;;;13.70;41.60;;;;;;5152220;27;45166;-52
2024/01/15 03:19:44;;;;;;;7.82;4.65;;;13.80;41.50;;;;;;5153437;27;46237;-52
2024/01/15 03:22:11;;;;;;;9.82;5.22;;;13.80;42.70;;;;;;5155703;27;45704;-52
2024/01/15 03:24:38;;;;;;;7.60;4.85;;;13.80;41.40;;;;;;5152715;27;44761;-52
2024/01/15 03:27:05;;;;;;;9.40;5.05;;;13.80;41.40;;;;;;5155572;27;44816;-52
2024/01/15 03:29:31;;;;;;;10.55;5.60;;;13.80;41.30;;;;;;5154575;27;47954;-52
2024/01/15 03:32:00;;;;;;;8.60;5.07;;;13.90;41.40;;;;;;5154680;27;45133;-52
2024/01/15 03:34:26;;;;;;;8.13;4.78;;;13.90;41.30;;;;;;5155057;27;44634;-52
2024/01/15 03:36:53;;;;;;;10.82;5.32;;;13.80;41.20;;;;;;5154343;27;45405;-52
2024/01/15 03:39:20;;;;;;;10.90;5.65;;;13.80;41.40;;;;;;5154631;27;46540;-52
2024/01/15 03:41:46;;;;;;;10.48;5.40;;;13.70;41.40;;;;;;5152987;27;45341;-51
2024/01/15 03:44:13;;;;;;;8.63;4.97;;;13.70;41.50;;;;;;5151571;27;45196;-52
2024/01/15 03:46:40;;;;;;;9.10;4.57;;;13.70;41.50;;;;;;5153036;27;45591;-52
2024/01/15 03:49:08;;;;;;;9.10;4.78;;;13.70;41.40;;;;;;5155774;27;47386;-51
2024/01/15 03:51:35;;;;;;;9.20;4.97;;;13.70;41.50;;;;;;5154320;27;45268;-51
2024/01/15 03:54:01;;;;;;;9.45;5.30;;;13.70;41.50;;;;;;5151538;27;45338;-52
2024/01/15 03:56:28;;;;;;;9.30;5.20;;;13.70;41.40;;;;;;5153004;27;45364;-51
2024/01/15 03:58:55;;;;;;;8.73;4.88;;;13.70;41.40;;;;;;5151168;27;47022;-51
2024/01/15 04:01:22;;;;;;;7.88;4.40;;;13.70;41.40;;;;;;5154588;27;45223;-51
2024/01/15 04:03:48;;;;;;;8.13;4.28;;;13.70;41.40;;;;;;5156593;27;45222;-52
2024/01/15 04:06:16;;;;;;;7.43;4.22;;;13.70;41.40;;;;;;5150549;27;45167;-51
2024/01/15 04:08:43;;;;;;;7.18;4.15;;;13.70;41.30;;;;;;5152769;27;45145;-52
2024/01/15 04:11:10;;;;;;;8.80;4.85;;;13.70;41.30;;;;;;5154527;27;45452;-52
2024/01/15 04:13:37;;;;;;;8.23;4.28;;;13.80;41.30;;;;;;5152698;27;45395;-51
2024/01/15 04:16:04;;;;;;;8.88;4.70;;;13.80;41.30;;;;;;5154224;27;45295;-52
2024/01/15 04:18:31;;;;;;;7.18;4.10;;;13.70;41.20;;;;;;5151901;27;46399;-51
2024/01/15 04:20:58;;;;;;;8.30;4.22;;;13.80;41.20;;;;;;5153080;27;45350;-51
2024/01/15 04:23:26;;;;;;;7.40;4.18;;;13.80;41.20;;;;;;5152795;27;45271;-51
2024/01/15 04:25:53;;;;;;;7.50;4.00;;;13.80;41.10;;;;;;5155929;27;45153;-51
2024/01/15 04:28:19;;;;;;;6.55;3.58;;;13.90;41.10;;;;;;5155244;27;45251;-51
2024/01/15 04:30:46;;;;;;;7.32;4.53;;;13.80;41.00;;;;;;5152282;27;45339;-51
2024/01/15 04:33:13;;;;;;;7.38;4.05;;;13.80;41.00;;;;;;5153248;27;45137;-52
2024/01/15 04:35:39;;;;;;;7.45;4.20;;;13.80;41.50;;;;;;5152652;27;45213;-52
2024/01/15 04:38:06;;;;;;;6.60;3.80;;;13.80;41.40;;;;;;5152913;27;45285;-52
2024/01/15 04:40:34;;;;;;;7.22;3.88;;;13.80;41.80;;;;;;5151207;27;45312;-51
2024/01/15 04:43:01;;;;;;;7.05;3.80;;;13.80;41.80;;;;;;5152629;27;45397;-51
2024/01/15 04:45:28;;;;;;;9.15;3.90;;;13.70;41.80;;;;;;5154946;27;45135;-52
2024/01/15 04:47:56;;;;;;;6.63;3.42;;;13.70;41.80;;;;;;5150569;27;45309;-51
2024/01/15 04:50:23;;;;;;;8.60;3.83;;;13.70;41.80;;;;;;5150776;27;45307;-52
2024/01/15 04:52:50;;;;;;;6.97;3.60;;;13.70;41.80;;;;;;5153651;27;45268;-51
2024/01/15 04:55:17;;;;;;;5.97;3.08;;;13.70;41.70;;;;;;5153684;27;44878;-52
2024/01/15 04:57:45;;;;;;;5.43;3.08;;;13.70;41.70;;;;;;5153573;27;47080;-51
2024/01/15 05:00:13;;;;;;;5.63;3.25;;;13.70;41.80;;;;;;5153485;27;45148;-51
2024/01/15 05:02:40;;;;;;;5.93;3.63;;;13.70;41.60;;;;;;5150903;27;44660;-51
2024/01/15 05:05:07;;;;;;;7.05;3.50;;;13.70;41.70;;;;;;5152368;27;45297;-52
2024/01/15 05:07:34;;;;;;;7.20;3.33;;;13.80;41.70;;;;;;5152314;27;45450;-52
2024/01/15 05:10:01;;;;;;;5.25;3.10;;;13.70;41.50;;;;;;5151053;27;45258;-51
2024/01/15 05:12:28;;;;;;;5.32;3.25;;;13.80;41.50;;;;;;5155792;27;45164;-51
2024/01/15 05:14:56;;;;;;;5.80;3.05;;;13.80;41.40;;;;;;5152524;27;44728;-52
2024/01/15 05:17:22;;;;;;;5.20;3.17;;;13.80;41.50;;;;;;5151502;27;47125;-51
2024/01/15 05:19:49;;;;;;;6.03;2.95;;;13.80;41.50;;;;;;5155471;27;44678;-51
2024/01/15 05:22:16;;;;;;;6.35;3.10;;;13.80;41.40;;;;;;5153464;27;45262;-51
2024/01/15 05:24:43;;;;;;;5.72;2.88;;;13.80;42.50;;;;;;5150761;27;45247;-51
2024/01/15 05:27:09;;;;;;;6.20;3.20;;;13.80;41.20;;;;;;5152290;27;47441;-51
2024/01/15 05:29:36;;;;;;;5.30;2.92;;;13.80;41.20;;;;;;5152255;27;45194;-51
2024/01/15 05:32:04;;;;;;;5.88;3.10;;;13.80;41.20;;;;;;5150814;27;45234;-51
2024/01/15 05:34:31;;;;;;;7.53;3.17;;;13.80;41.40;;;;;;5151569;27;44918;-51
2024/01/15 05:36:58;;;;;;;5.60;3.17;;;13.70;41.40;;;;;;5150530;27;48040;-51
2024/01/15 05:39:24;;;;;;;3.58;2.50;;;13.70;41.40;;;;;;5152348;27;45162;-51
2024/01/15 05:41:51;;;;;;;6.13;3.05;;;13.70;41.40;;;;;;5154541;27;45373;-51
2024/01/15 05:44:18;;;;;;;7.15;2.97;;;13.70;41.40;;;;;;5154638;27;45405;-51
2024/01/15 05:46:45;;;;;;;4.97;3.05;;;13.70;41.40;;;;;;5150881;27;47034;-51
2024/01/15 05:49:14;;;;;;;4.28;2.40;;;13.70;41.50;;;;;;5150426;27;45245;-51
2024/01/15 05:51:40;;;;;;;6.07;2.58;;;13.70;41.60;;;;;;5149928;27;45165;-51
2024/01/15 05:54:07;;;;;;;5.53;2.40;;;13.70;41.50;;;;;;5151444;27;45237;-51
2024/01/15 05:56:34;;;;;;;4.20;2.50;;;13.70;41.50;;;;;;5152546;27;47456;-51
2024/01/15 05:59:01;;;;;;;7.07;2.60;;;13.70;41.40;;;;;;5154557;27;45376;-51
2024/01/15 06:01:28;;;;;;;3.63;2.10;;;13.70;41.40;;;;;;5154375;27;45214;-52
2024/01/15 06:03:54;;;;;;;4.43;2.35;;;13.80;41.70;;;;;;5151364;27;45290;-52
2024/01/15 06:06:23;;;;;;;3.15;2.03;;;13.80;42.00;;;;;;5149497;27;46527;-52
2024/01/15 06:08:49;;;;;;;4.55;2.53;;;13.70;41.80;;;;;;5152535;27;46215;-52
2024/01/15 06:11:16;;;;;;;3.65;2.03;;;13.80;41.80;;;;;;5153242;27;45250;-51
2024/01/15 06:13:43;;;;;;;5.13;2.35;;;13.80;41.80;;;;;;5150934;27;45209;-51
2024/01/15 06:16:15;;;;;;;3.85;2.15;;;13.80;41.60;;;;;;5151030;27;47299;-51
2024/01/15 06:18:41;;;;;;;3.15;1.90;;;13.80;41.50;;;;;;5151705;27;45172;-51
2024/01/15 06:21:10;;;;;;;3.90;2.35;;;13.70;41.20;;;;;;5153620;27;45484;-51
2024/01/15 06:23:38;;;;;;;3.88;1.90;;;13.80;41.40;;;;;;5151680;27;45323;-52
2024/01/15 06:26:05;;;;;;;3.90;2.40;;;13.80;41.40;;;;;;5150269;27;47511;-51
2024/01/15 06:28:32;;;;;;;3.90;2.17;;;13.70;41.30;;;;;;5150442;27;45201;-52
2024/01/15 06:30:59;;;;;;;2.22;1.63;;;13.70;41.20;;;;;;5153180;27;45424;-51
2024/01/15 06:33:26;;;;;;;4.28;2.22;;;13.70;41.20;;;;;;5150571;27;45438;-51
2024/01/15 06:35:52;;;;;;;5.10;2.13;;;13.70;41.20;;;;;;5153715;27;47467;-52
2024/01/15 06:38:20;;;;;;;6.15;2.15;;;13.70;41.30;;;;;;5146084;27;45175;-52
2024/01/15 06:40:48;;;;;;;5.32;2.28;;;13.70;41.30;;;;;;5153620;27;44643;-52
2024/01/15 06:43:15;;;;;;;3.92;2.17;;;13.70;41.20;;;;;;5150818;27;45365;-52
2024/01/15 06:45:42;;;;;;;3.67;2.38;;;13.70;41.30;;;;;;5147254;27;46261;-52
2024/01/15 06:48:09;;;;;;;4.32;2.03;;;13.70;41.20;;;;;;5148320;27;45137;-51
2024/01/15 06:50:36;;;;;;;5.03;2.30;;;13.60;41.10;;;;;;5150213;27;45187;-52
2024/01/15 06:53:02;;;;;;;4.03;2.63;;;13.70;41.20;;;;;;5149615;27;45205;-52
2024/01/15 06:55:29;;;;;;;3.55;2.30;;;13.70;41.30;;;;;;5150773;27;47956;-51
2024/01/15 06:57:57;;;;;;;5.00;2.70;;;13.70;41.40;;;;;;5153137;27;45169;-51
2024/01/15 07:00:24;;;;;;;3.78;2.15;;;13.70;41.30;;;;;;5151614;27;45722;-51
2024/01/15 07:02:51;;;;;;;6.25;2.78;;;13.70;41.40;;;;;;5152980;27;44712;-51
2024/01/15 07:05:18;;;;;;;4.15;2.28;;;13.70;41.40;;;;;;5149234;27;45203;-51
2024/01/15 07:07:45;;;;;;;4.82;2.60;;;13.80;41.50;;;;;;5147911;27;44713;-51
2024/01/15 07:10:12;;;;;;;3.88;1.92;;;13.80;41.40;;;;;;5149215;27;45126;-51
2024/01/15 07:12:38;;;;;;;3.90;2.35;;;13.80;41.40;;;;;;5149660;27;45179;-51
2024/01/15 07:15:08;;;;;;;4.60;2.55;;;13.80;41.30;;;;;;5152231;27;47003;-51
2024/01/15 07:17:34;;;;;;;4.40;2.38;;;13.80;41.10;;;;;;5150284;27;45283;-52
2024/01/15 07:20:02;;;;;;;6.13;2.58;;;14.00;41.10;;;;;;5153689;27;45227;-52
2024/01/15 07:22:29;;;;;;;3.83;2.30;;;14.00;40.70;;;;;;5148613;27;45449;-52
2024/01/15 07:24:56;;;;;;;4.32;2.30;;;14.00;40.60;;;;;;5152150;27;47717;-52
2024/01/15 07:27:23;;;;;;;3.28;2.13;;;14.10;40.70;;;;;;5148408;27;45775;-52
2024/01/15 07:29:49;;;;;;;4.43;2.20;;;14.10;40.60;;;;;;5149506;27;45244;-51
2024/01/15 07:32:17;;;;;;;5.32;2.47;;;14.10;40.60;;;;;;5153841;27;45292;-52
2024/01/15 07:34:44;;;;;;;3.78;2.30;;;14.10;40.60;;;;;;5148811;27;47415;-52
2024/01/15 07:37:11;;;;;;;4.68;2.53;;;14.10;40.50;;;;;;5147221;27;45154;-52
2024/01/15 07:39:38;;;;;;;4.35;2.38;;;14.10;40.30;;;;;;5148343;27;45493;-51
2024/01/15 07:42:05;;;;;;;4.47;2.38;;;14.10;40.30;;;;;;5153081;27;45187;-51
2024/01/15 07:44:32;;;;;;;5.20;2.65;;;14.20;40.30;;;;;;5150975;27;45305;-52
2024/01/15 07:46:59;;;;;;;5.88;2.50;;;14.20;40.20;;;;;;5147438;27;45232;-51
2024/01/15 07:49:28;;;;;;;5.88;2.88;;;14.20;40.20;;;;;;5150054;27;45128;-52
2024/01/15 07:51:54;;;;;;;3.63;2.38;;;14.10;40.20;;;;;;5152894;27;44704;-51
2024/01/15 07:54:21;;;;;;;5.68;2.85;;;14.20;40.30;;;;;;5151814;27;45265;-51
2024/01/15 07:56:58;;;;;;;5.45;3.25;;;14.20;40.30;;;;;;5151403;27;45273;-52
2024/01/15 07:59:25;;;;;;;6.82;3.35;;;14.20;40.30;;;;;;5155468;27;45176;-52
2024/01/15 08:01:52;;;;;;;6.70;3.15;;;14.20;40.30;;;;;;5153153;27;45307;-52
2024/01/15 08:04:18;;;;;;;5.65;3.22;;;14.20;40.30;;;;;;5153629;27;46178;-52
2024/01/15 08:06:47;;;;;;;5.60;3.42;;;14.20;40.30;;;;;;5155915;27;45191;-52
2024/01/15 08:09:14;;;;;;;6.55;3.17;;;14.20;40.30;;;;;;5154811;27;44781;-52
2024/01/15 08:11:42;;;;;;;5.18;2.95;;;14.20;40.40;;;;;;5154395;27;46113;-52
2024/01/15 08:14:09;;;;;;;5.95;3.55;;;14.10;40.30;;;;;;5151450;27;45388;-51
2024/01/15 08:16:36;;;;;;;5.53;3.42;;;14.10;40.40;;;;;;5152323;27;44703;-51
2024/01/15 08:19:03;;;;;;;6.10;3.47;;;14.00;40.30;;;;;;5156514;27;45244;-51
2024/01/15 08:21:31;;;;;;;5.18;3.25;;;14.00;40.40;;;;;;5157098;27;45267;-51
2024/01/15 08:24:00;;;;;;;5.10;3.00;;;14.00;40.30;;;;;;5151164;27;45608;-51
2024/01/15 08:26:27;;;;;;;5.80;3.55;;;14.00;40.50;;;;;;5153908;27;45277;-51
2024/01/15 08:28:54;;;;;;;7.13;3.55;;;13.90;40.50;;;;;;5156480;27;45191;-51
2024/01/15 08:31:21;;;;;;;7.20;3.53;;;13.90;40.70;;;;;;5152857;27;44789;-51
2024/01/15 08:33:48;;;;;;;4.82;3.30;;;13.90;40.60;;;;;;5153701;27;46232;-52
2024/01/15 08:36:15;;;;;;;6.43;3.70;;;13.80;40.70;;;;;;5153983;27;45238;-51
2024/01/15 08:38:41;;;;;;;5.85;3.72;;;13.80;40.70;;;;;;5152354;27;45285;-51
2024/01/15 08:41:09;;;;;;;6.10;3.28;;;13.80;40.60;;;;;;5155717;27;45106;-51
2024/01/15 08:43:36;;;;;;;6.25;3.60;;;13.80;40.70;;;;;;5157356;27;46960;-52
2024/01/15 08:46:03;;;;;;;4.03;2.78;;;13.70;40.60;;;;;;5152361;27;45371;-51
2024/01/15 08:48:30;;;;;;;5.35;3.22;;;13.80;40.70;;;;;;5152426;27;45334;-51
2024/01/15 08:50:57;;;;;;;6.35;3.28;;;13.70;40.70;;;;;;5157413;27;44991;-52
2024/01/15 08:53:24;;;;;;;5.80;3.20;;;13.70;40.70;;;;;;5150793;27;47228;-51
2024/01/15 08:55:51;;;;;;;4.93;3.10;;;13.80;40.70;;;;;;5151035;27;45178;-52
2024/01/15 08:58:19;;;;;;;4.93;3.08;;;13.70;40.80;;;;;;5154500;27;45200;-52
2024/01/15 09:00:46;;;;;;;5.40;3.28;;;13.80;41.00;;;;;;5153055;27;45139;-52
2024/01/15 09:03:12;;;;;;;5.85;3.33;;;13.80;41.50;;;;;;5153868;27;46997;-51
2024/01/15 09:05:40;;;;;;;4.40;3.00;;;13.80;41.30;;;;;;5151986;27;45238;-52
2024/01/15 09:08:07;;;;;;;5.07;2.88;;;13.80;41.40;;;;;;5147069;27;45124;-51
2024/01/15 09:10:34;;;;;;;5.40;3.03;;;13.80;41.50;;;;;;5152905;27;45349;-51
2024/01/15 09:13:01;;;;;;;5.10;3.42;;;13.80;41.50;;;;;;5151685;27;47022;-51
2024/01/15 09:15:29;;;;;;;4.80;2.60;;;13.80;41.60;;;;;;5150147;27;45332;-51
2024/01/15 09:17:57;;;;;;;5.05;2.90;;;13.70;41.40;;;;;;5154058;27;45082;-51
2024/01/15 09:20:25;;;;;;;4.85;2.97;;;13.70;41.50;;;;;;5152988;27;45352;-51
2024/01/15 09:22:52;;;;;;;4.63;2.85;;;13.70;41.50;;;;;;5148578;27;45330;-51
2024/01/15 09:25:19;;;;;;;6.55;2.83;;;13.70;41.50;;;;;;5152485;27;45087;-51
2024/01/15 09:27:46;;;;;;;6.10;2.20;;;13.70;41.50;;;;;;5151165;27;45358;-51
2024/01/15 09:30:13;;;;;;;3.90;2.53;;;13.70;41.60;;;;;;5149696;27;45267;-52
2024/01/15 09:32:42;;;;;;;3.78;2.40;;;13.70;41.60;;;;;;5149763;27;46058;-52
2024/01/15 09:35:09;;;;;;;3.80;2.22;;;13.70;41.60;;;;;;5152723;27;45319;-52
2024/01/15 09:37:37;;;;;;;3.20;2.00;;;13.70;41.70;;;;;;5145782;27;45264;-52
2024/01/15 09:40:04;;;;;;;3.78;2.28;;;13.70;41.70;;;;;;5151363;27;45696;-51
2024/01/15 09:42:32;;;;;;;2.40;1.80;;;13.70;41.60;;;;;;5155140;27;45557;-52
2024/01/15 09:44:59;;;;;;;3.67;1.90;;;13.70;41.70;;;;;;5155710;27;45194;-52
2024/01/15 09:47:25;;;;;;;2.65;1.52;;;13.70;41.80;;;;;;5151510;27;46398;-52
2024/01/15 09:49:54;;;;;;;2.42;1.60;;;13.70;41.80;;;;;;5148498;27;45171;-52
2024/01/15 09:52:21;;;;;;;3.50;1.65;;;13.70;41.70;;;;;;5152948;27;46321;-52
2024/01/15 09:54:49;;;;;;;4.28;1.63;;;13.70;41.60;;;;;;5149672;27;45212;-52
2024/01/15 09:57:17;;;;;;;1.58;1.13;;;13.80;41.70;;;;;;5152933;27;45148;-52
2024/01/15 09:59:45;;;;;;;2.08;1.30;;;13.80;41.60;;;;;;5152961;27;45244;-51
2024/01/15 10:02:17;;;;;;;3.13;1.25;;;13.80;41.50;;;;;;5157816;27;46596;-52
2024/01/15 10:04:44;;;;;;;1.98;1.15;;;13.90;41.60;;;;;;5149844;27;45475;-52
2024/01/15 10:07:16;;;;;;;2.65;1.10;;;13.80;41.40;;;;;;5150622;27;45250;-52
2024/01/15 10:09:43;;;;;;;1.98;1.10;;;13.80;41.60;;;;;;5149769;27;45300;-52
2024/01/15 10:12:11;;;;;;;3.10;1.00;;;13.80;41.60;;;;;;5153972;27;45154;-51
2024/01/15 10:14:37;;;;;;;2.13;0.90;;;13.80;41.70;;;;;;5151880;27;45156;-51
2024/01/15 10:17:14;;;;;;;2.42;1.10;;;13.70;41.70;;;;;;5150616;27;44720;-51
2024/01/15 10:19:42;;;;;;;1.63;1.13;;;13.70;41.80;;;;;;5148879;27;45331;-51
2024/01/15 10:22:09;;;;;;;0.95;0.70;;;13.70;41.80;;;;;;5154114;27;45258;-51
2024/01/15 10:24:38;;;;;;;2.80;0.90;;;13.80;41.90;;;;;;5149691;27;45209;-51
2024/01/15 10:27:07;;;;;;;0.95;0.70;;;13.70;41.70;;;;;;5152015;27;44643;-51
2024/01/15 10:29:33;;;;;;;1.40;0.90;;;13.80;41.80;;;;;;5150481;27;45262;-52
2024/01/15 10:32:00;;;;;;;1.60;0.90;;;13.80;41.80;;;;;;5155015;27;48124;-51
2024/01/15 10:34:27;;;;;;;1.63;0.70;;;13.70;41.70;;;;;;5151588;27;45298;-52
2024/01/15 10:36:56;;;;;;;1.45;0.80;;;13.70;41.70;;;;;;5150139;27;45313;-51
2024/01/15 10:39:22;;;;;;;1.92;1.08;;;13.80;41.80;;;;;;5151274;27;45364;-52
2024/01/15 10:41:51;;;;;;;0.70;0.50;;;13.70;41.80;;;;;;5153462;27;46267;-52
2024/01/15 10:44:18;;;;;;;1.48;0.68;;;13.80;41.70;;;;;;5154562;27;45256;-51
2024/01/15 10:46:47;;;;;;;1.17;0.60;;;13.80;41.70;;;;;;5149225;27;45169;-51
2024/01/15 10:49:13;;;;;;;1.15;0.90;;;13.80;41.80;;;;;;5153373;27;45135;-52
2024/01/15 10:51:42;;;;;;;0.82;0.50;;;13.80;41.70;;;;;;5149543;27;46363;-51
2024/01/15 10:54:10;;;;;;;0.90;0.55;;;13.90;41.80;;;;;;5148984;27;45181;-51
2024/01/15 10:56:38;;;;;;;0.95;0.55;;;13.90;41.80;;;;;;5151076;27;44692;-51
2024/01/15 10:59:07;;;;;;;0.60;0.50;;;13.90;41.70;;;;;;5149641;27;45223;-51
2024/01/15 11:01:35;;;;;;;0.95;0.50;;;13.90;41.70;;;;;;5150436;27;46909;-51
2024/01/15 11:04:01;;;;;;;0.40;0.40;;;13.90;41.80;;;;;;5154029;27;45221;-52
2024/01/15 11:06:41;;;;;;;0.40;0.40;;;13.90;42.20;;;;;;5148418;27;45334;-52
2024/01/15 11:09:08;;;;;;;0.77;0.70;;;13.90;42.30;;;;;;5148203;27;45374;-52
2024/01/15 11:11:37;;;;;;;1.58;0.57;;;13.80;42.30;;;;;;5151389;27;45375;-51
2024/01/15 11:14:06;;;;;;;0.57;0.50;;;13.80;42.40;;;;;;5151936;27;45293;-52
2024/01/15 11:16:54;;;;;;;0.73;0.50;;;13.80;42.40;;;;;;5147541;27;45414;-52
2024/01/15 11:19:21;;;;;;;0.52;0.35;;;13.80;42.40;;;;;;5150355;27;45318;-52
2024/01/15 11:21:48;;;;;;;0.90;0.50;;;13.80;42.20;;;;;;5149729;27;46035;-51
2024/01/15 11:24:36;;;;;;;0.30;0.30;;;13.80;42.10;;;;;;5151149;27;45136;-52
2024/01/15 11:27:03;;;;;;;0.65;0.50;;;13.80;42.10;;;;;;5151279;27;45301;-52
2024/01/15 11:29:34;;;;;;;1.02;0.40;;;13.90;42.00;;;;;;5148841;27;45212;-51
2024/01/15 11:32:04;;;;;;;1.20;0.40;;;13.90;41.60;;;;;;5154339;27;47115;-51
2024/01/15 11:34:54;;;;;;;0.55;0.40;;;14.00;41.50;;;;;;5153754;27;45142;-52
2024/01/15 11:37:23;;;;;;;1.42;0.40;;;14.00;41.50;;;;;;5154225;27;45425;-52
2024/01/15 11:39:52;;;;;;;3.20;0.40;;;14.10;41.60;;;;;;5153173;27;45386;-52
2024/01/15 11:42:21;;;;;;;0.50;0.40;;;14.00;41.30;;;;;;5157977;27;46058;-51
2024/01/15 11:44:50;;;;;;;1.08;0.50;;;14.10;41.30;;;;;;5152551;27;45226;-52
2024/01/15 11:47:19;;;;;;;0.73;0.50;;;14.10;41.10;;;;;;5153054;27;45191;-51
2024/01/15 11:50:00;;;;;;;1.27;0.55;;;14.20;41.20;;;;;;5158006;27;45480;-51
2024/01/15 11:52:32;;;;;;;2.55;0.50;;;14.20;41.00;;;;;;5153869;27;45250;-52
2024/01/15 11:55:03;;;;;;;0.55;0.40;;;14.20;41.00;;;;;;5150459;27;45253;-51
2024/01/15 11:57:43;;;;;;;0.85;0.50;;;14.20;40.90;;;;;;5156095;27;45397;-51
2024/01/15 12:00:13;;;;;;;0.60;0.50;;;14.10;40.70;;;;;;5156487;27;45311;-51
2024/01/15 12:02:41;;;;;;;0.75;0.45;;;14.10;40.60;;;;;;5155285;27;46204;-52
2024/01/15 12:05:08;;;;;;;1.00;0.45;;;14.10;40.50;;;;;;5151881;27;45278;-51
2024/01/15 12:07:35;;;;;;;1.75;0.63;;;14.10;40.60;;;;;;5154184;27;45212;-51
2024/01/15 12:10:02;;;;;;;0.90;0.40;;;14.10;40.60;;;;;;5151892;27;45112;-51
2024/01/15 12:12:38;;;;;;;1.45;0.77;;;14.10;40.60;;;;;;5152805;27;45234;-51
2024/01/15 12:15:06;;;;;;;0.77;0.47;;;14.10;40.50;;;;;;5149676;27;45827;-51
2024/01/15 12:17:34;;;;;;;0.82;0.68;;;14.10;40.70;;;;;;5151354;27;45285;-52
2024/01/15 12:20:01;;;;;;;1.08;0.70;;;14.00;40.50;;;;;;5153061;27;45261;-51
2024/01/15 12:22:28;;;;;;;1.38;0.70;;;14.00;40.60;;;;;;5149701;27;47412;-51
2024/01/15 12:24:55;;;;;;;1.90;0.85;;;14.00;40.60;;;;;;5148272;27;45201;-51
2024/01/15 12:27:22;;;;;;;1.10;0.60;;;14.00;40.70;;;;;;5152133;27;45190;-52
2024/01/15 12:29:49;;;;;;;1.00;0.70;;;14.00;40.70;;;;;;5152396;27;45177;-52
2024/01/15 12:32:16;;;;;;;1.10;0.65;;;13.90;40.70;;;;;;5150683;27;45150;-51
2024/01/15 12:34:44;;;;;;;2.00;0.60;;;14.00;40.90;;;;;;5152191;27;45222;-51
2024/01/15 12:37:12;;;;;;;1.73;0.82;;;13.90;40.90;;;;;;5148992;27;45263;-51
2024/01/15 12:39:38;;;;;;;1.95;0.77;;;13.90;41.10;;;;;;5147691;27;45266;-51
2024/01/15 12:42:06;;;;;;;1.83;0.88;;;14.00;41.00;;;;;;5156013;27;46247;-51
2024/01/15 12:44:33;;;;;;;1.25;0.77;;;14.00;41.10;;;;;;5153146;27;45903;-51
2024/01/15 12:47:00;;;;;;;2.20;0.93;;;13.90;40.90;;;;;;5151752;27;45987;-51